createdAt,value
2019-05-03T00:00:00.178Z,1019.89
2019-05-03T00:01:02.256Z,1019.89
2019-05-03T00:02:01.832Z,1019.85
2019-05-03T00:03:01.674Z,1019.91
2019-05-03T00:04:00.138Z,1019.99
2019-05-03T00:05:02.191Z,1019.96
2019-05-03T00:06:01.738Z,1020.08
2019-05-03T00:07:00.108Z,1019.94
2019-05-03T00:08:02.022Z,1019.98
2019-05-03T00:09:01.556Z,1019.96
2019-05-03T00:10:00.082Z,1019.92
2019-05-03T00:11:00.071Z,1019.92
2019-05-03T00:12:01.416Z,1019.88
2019-05-03T00:13:01.867Z,1019.91
2019-05-03T00:14:01.664Z,1019.99
2019-05-03T00:15:00.032Z,1019.95
2019-05-03T00:16:00.022Z,1019.96
2019-05-03T00:17:00.012Z,1019.98
2019-05-03T00:18:00.006Z,1019.95
2019-05-03T00:19:01.496Z,1019.93
2019-05-03T00:20:02.191Z,1019.97
2019-05-03T00:21:02.035Z,1020
2019-05-03T00:22:01.938Z,1019.98
2019-05-03T00:22:59.958Z,1020.05
2019-05-03T00:23:59.945Z,1020.11
2019-05-03T00:25:05.744Z,1020.03
2019-05-03T00:25:59.924Z,1020.14
2019-05-03T00:27:01.574Z,1020.15
2019-05-03T00:28:01.713Z,1020.1
2019-05-03T00:28:59.895Z,1020.09
2019-05-03T00:29:59.886Z,1020.08
2019-05-03T00:31:01.837Z,1020.06
2019-05-03T00:32:01.758Z,1020.1
2019-05-03T00:32:59.857Z,1020.06
2019-05-03T00:33:59.847Z,1020.14
2019-05-03T00:35:01.643Z,1020.08
2019-05-03T00:35:59.828Z,1020.1
2019-05-03T00:37:01.728Z,1020.13
2019-05-03T00:37:59.807Z,1020.11
2019-05-03T00:39:01.827Z,1020.08
2019-05-03T00:40:01.872Z,1020.1
2019-05-03T00:41:01.718Z,1020.09
2019-05-03T00:41:59.768Z,1020.14
2019-05-03T00:42:59.759Z,1020.14
2019-05-03T00:43:59.749Z,1020.18
2019-05-03T00:44:59.739Z,1020.18
2019-05-03T00:45:59.735Z,1020.16
2019-05-03T00:46:59.719Z,1020.27
2019-05-03T00:48:01.719Z,1020.29
2019-05-03T00:48:59.698Z,1020.31
2019-05-03T00:49:59.691Z,1020.32
2019-05-03T00:50:59.679Z,1020.28
2019-05-03T00:51:59.670Z,1020.31
2019-05-03T00:52:59.662Z,1020.29
2019-05-03T00:53:59.650Z,1020.23
2019-05-03T00:54:59.639Z,1020.24
2019-05-03T00:56:01.577Z,1020.26
2019-05-03T00:56:59.620Z,1020.21
2019-05-03T00:57:59.610Z,1020.2
2019-05-03T00:58:59.598Z,1020.24
2019-05-03T01:00:01.792Z,1020.23
2019-05-03T01:00:59.581Z,1020.31
2019-05-03T01:01:59.571Z,1020.26
2019-05-03T01:02:59.560Z,1020.23
2019-05-03T01:04:01.644Z,1020.23
2019-05-03T01:04:59.541Z,1020.25
2019-05-03T01:05:59.530Z,1020.33
2019-05-03T01:06:59.519Z,1020.24
2019-05-03T01:07:59.511Z,1020.29
2019-05-03T01:08:59.509Z,1020.28
2019-05-03T01:09:59.490Z,1020.25
2019-05-03T01:10:59.480Z,1020.27
2019-05-03T01:11:59.471Z,1020.29
2019-05-03T01:13:01.573Z,1020.24
2019-05-03T01:13:59.452Z,1020.27
2019-05-03T01:14:59.443Z,1020.26
2019-05-03T01:15:59.433Z,1020.19
2019-05-03T01:16:59.422Z,1020.25
2019-05-03T01:17:59.411Z,1020.29
2019-05-03T01:18:59.400Z,1020.34
2019-05-03T01:19:59.392Z,1020.34
2019-05-03T01:20:59.381Z,1020.34
2019-05-03T01:21:59.372Z,1020.35
2019-05-03T01:22:59.363Z,1020.29
2019-05-03T01:23:59.351Z,1020.37
2019-05-03T01:24:59.341Z,1020.4
2019-05-03T01:25:59.332Z,1020.35
2019-05-03T01:26:59.324Z,1020.43
2019-05-03T01:27:59.313Z,1020.47
2019-05-03T01:28:59.303Z,1020.46
2019-05-03T01:29:59.292Z,1020.4
2019-05-03T01:30:59.280Z,1020.35
2019-05-03T01:31:59.280Z,1020.4
2019-05-03T01:32:59.264Z,1020.43
2019-05-03T01:33:59.252Z,1020.38
2019-05-03T01:34:59.243Z,1020.35
2019-05-03T01:35:59.232Z,1020.44
2019-05-03T01:36:59.222Z,1020.45
2019-05-03T01:37:59.213Z,1020.51
2019-05-03T01:38:59.202Z,1020.5
2019-05-03T01:39:59.192Z,1020.61
2019-05-03T01:40:59.182Z,1020.59
2019-05-03T01:41:59.176Z,1020.6
2019-05-03T01:42:59.161Z,1020.55
2019-05-03T01:43:59.151Z,1020.62
2019-05-03T01:44:59.141Z,1020.67
2019-05-03T01:45:59.131Z,1020.68
2019-05-03T01:46:59.122Z,1020.71
2019-05-03T01:47:59.111Z,1020.72
2019-05-03T01:48:59.100Z,1020.7
2019-05-03T01:49:59.091Z,1020.76
2019-05-03T01:50:59.081Z,1020.83
2019-05-03T01:51:59.072Z,1020.81
2019-05-03T01:52:59.064Z,1020.82
2019-05-03T01:53:59.051Z,1020.86
2019-05-03T01:54:59.040Z,1020.86
2019-05-03T01:55:59.031Z,1020.87
2019-05-03T01:56:59.313Z,1020.84
2019-05-03T01:57:59.010Z,1020.87
2019-05-03T01:58:59.000Z,1020.86
2019-05-03T01:59:58.991Z,1020.9
2019-05-03T02:00:58.979Z,1020.89
2019-05-03T02:01:58.969Z,1020.91
2019-05-03T02:02:58.960Z,1020.92
2019-05-03T02:03:58.949Z,1020.91
2019-05-03T02:04:58.939Z,1020.91
2019-05-03T02:05:58.929Z,1020.9
2019-05-03T02:06:58.919Z,1020.97
2019-05-03T02:07:58.907Z,1020.95
2019-05-03T02:08:58.897Z,1021.04
2019-05-03T02:09:58.888Z,1020.91
2019-05-03T02:10:58.881Z,1021
2019-05-03T02:11:58.867Z,1020.99
2019-05-03T02:12:58.857Z,1020.97
2019-05-03T02:13:58.848Z,1021.02
2019-05-03T02:14:58.837Z,1021.07
2019-05-03T02:15:58.827Z,1021.02
2019-05-03T02:16:58.824Z,1021.02
2019-05-03T02:17:58.807Z,1021.06
2019-05-03T02:18:58.796Z,1021.05
2019-05-03T02:19:58.786Z,1021.08
2019-05-03T02:20:58.775Z,1021.11
2019-05-03T02:21:58.766Z,1021.09
2019-05-03T02:22:58.755Z,1021.15
2019-05-03T02:23:58.744Z,1021.15
2019-05-03T02:24:58.735Z,1021.15
2019-05-03T02:25:59.192Z,1021.22
2019-05-03T02:26:58.715Z,1021.22
2019-05-03T02:27:58.703Z,1021.32
2019-05-03T02:28:58.694Z,1021.32
2019-05-03T02:29:58.683Z,1021.27
2019-05-03T02:30:58.673Z,1021.28
2019-05-03T02:31:58.664Z,1021.27
2019-05-03T02:32:58.653Z,1021.3
2019-05-03T02:33:58.643Z,1021.34
2019-05-03T02:34:58.631Z,1021.31
2019-05-03T02:35:58.622Z,1021.39
2019-05-03T02:36:58.612Z,1021.37
2019-05-03T02:37:58.601Z,1021.34
2019-05-03T02:38:58.591Z,1021.35
2019-05-03T02:39:58.581Z,1021.37
2019-05-03T02:40:58.569Z,1021.37
2019-05-03T02:42:06.228Z,1021.34
2019-05-03T02:42:58.549Z,1021.39
2019-05-03T02:43:58.542Z,1021.42
2019-05-03T02:44:58.529Z,1021.39
2019-05-03T02:45:58.520Z,1021.36
2019-05-03T02:46:58.508Z,1021.43
2019-05-03T02:47:58.497Z,1021.41
2019-05-03T02:48:58.488Z,1021.43
2019-05-03T02:49:58.477Z,1021.42
2019-05-03T02:50:58.467Z,1021.45
2019-05-03T02:51:58.456Z,1021.45
2019-05-03T02:52:58.446Z,1021.43
2019-05-03T02:53:58.438Z,1021.46
2019-05-03T02:54:58.425Z,1021.42
2019-05-03T02:56:13.653Z,1021.42
2019-05-03T02:56:58.420Z,1021.45
2019-05-03T02:57:58.394Z,1021.38
2019-05-03T02:58:58.383Z,1021.43
2019-05-03T02:59:58.382Z,1021.41
2019-05-03T03:00:58.363Z,1021.43
2019-05-03T03:01:58.353Z,1021.41
2019-05-03T03:02:58.341Z,1021.43
2019-05-03T03:03:58.331Z,1021.44
2019-05-03T03:04:58.321Z,1021.43
2019-05-03T03:05:58.309Z,1021.44
2019-05-03T03:06:58.307Z,1021.4
2019-05-03T03:07:58.289Z,1021.49
2019-05-03T03:08:58.295Z,1021.45
2019-05-03T03:09:58.267Z,1021.42
2019-05-03T03:10:58.256Z,1021.45
2019-05-03T03:11:58.252Z,1021.42
2019-05-03T03:12:58.238Z,1021.47
2019-05-03T03:13:58.228Z,1021.48
2019-05-03T03:14:58.219Z,1021.49
2019-05-03T03:15:58.206Z,1021.49
2019-05-03T03:16:58.195Z,1021.5
2019-05-03T03:17:58.185Z,1021.5
2019-05-03T03:18:58.173Z,1021.45
2019-05-03T03:19:58.163Z,1021.5
2019-05-03T03:20:58.151Z,1021.58
2019-05-03T03:21:58.155Z,1021.59
2019-05-03T03:22:58.132Z,1021.65
2019-05-03T03:23:58.121Z,1021.73
2019-05-03T03:24:58.117Z,1021.72
2019-05-03T03:25:58.101Z,1021.76
2019-05-03T03:26:58.089Z,1021.76
2019-05-03T03:27:58.078Z,1021.77
2019-05-03T03:28:58.067Z,1021.73
2019-05-03T03:29:58.058Z,1021.76
2019-05-03T03:30:58.048Z,1021.73
2019-05-03T03:31:58.709Z,1021.72
2019-05-03T03:32:58.298Z,1021.69
2019-05-03T03:33:59.480Z,1021.66
2019-05-03T03:35:02.908Z,1021.77
2019-05-03T03:36:07.379Z,1021.77
2019-05-03T03:37:15.994Z,1021.7
2019-05-03T03:38:15.951Z,1021.81
2019-05-03T03:39:15.939Z,1021.85
2019-05-03T03:40:16.163Z,1021.96
2019-05-03T03:41:16.339Z,1021.89
2019-05-03T03:42:16.329Z,1021.97
2019-05-03T03:43:15.900Z,1021.95
2019-05-03T03:44:15.889Z,1021.95
2019-05-03T03:45:16.458Z,1022
2019-05-03T03:46:16.016Z,1022.03
2019-05-03T03:47:16.592Z,1022.06
2019-05-03T03:48:15.956Z,1022.12
2019-05-03T03:49:15.836Z,1022.2
2019-05-03T03:50:15.826Z,1022.11
2019-05-03T03:51:15.816Z,1022.13
2019-05-03T03:52:16.072Z,1022.16
2019-05-03T03:53:15.793Z,1022.19
2019-05-03T03:54:15.783Z,1022.21
2019-05-03T03:55:16.199Z,1022.25
2019-05-03T03:56:16.085Z,1022.31
2019-05-03T03:57:15.987Z,1022.28
2019-05-03T03:58:21.905Z,1022.24
2019-05-03T03:59:15.731Z,1022.28
2019-05-03T04:00:16.335Z,1022.34
2019-05-03T04:01:15.832Z,1022.34
2019-05-03T04:02:16.097Z,1022.38
2019-05-03T04:03:15.954Z,1022.36
2019-05-03T04:04:16.105Z,1022.35
2019-05-03T04:05:15.994Z,1022.38
2019-05-03T04:06:15.655Z,1022.32
2019-05-03T04:07:16.080Z,1022.34
2019-05-03T04:08:16.107Z,1022.36
2019-05-03T04:09:16.130Z,1022.43
2019-05-03T04:10:15.793Z,1022.41
2019-05-03T04:11:15.708Z,1022.44
2019-05-03T04:12:16.401Z,1022.43
2019-05-03T04:13:16.044Z,1022.47
2019-05-03T04:14:16.079Z,1022.42
2019-05-03T04:15:15.973Z,1022.44
2019-05-03T04:16:18.432Z,1022.42
2019-05-03T04:17:15.537Z,1022.39
2019-05-03T04:18:16.283Z,1022.46
2019-05-03T04:19:17.329Z,1022.3
2019-05-03T04:20:16.185Z,1021.96
2019-05-03T04:21:16.173Z,1021.84
2019-05-03T04:22:16.401Z,1021.88
2019-05-03T04:23:16.188Z,1021.7
2019-05-03T04:24:16.238Z,1021.44
2019-05-03T04:25:15.713Z,1021.18
2019-05-03T04:26:16.209Z,1021.26
2019-05-03T04:27:22.139Z,1021.27
2019-05-03T04:28:16.168Z,1021.25
2019-05-03T04:29:16.017Z,1021.17
2019-05-03T04:30:16.415Z,1020.99
2019-05-03T04:31:15.448Z,1020.79
2019-05-03T04:32:15.791Z,1020.62
2019-05-03T04:33:15.979Z,1020.46
2019-05-03T04:34:16.169Z,1020.31
2019-05-03T04:35:16.290Z,1020.23
2019-05-03T04:36:15.890Z,1019.95
2019-05-03T04:37:16.090Z,1020.05
2019-05-03T04:38:16.183Z,1019.99
2019-05-03T04:39:19.147Z,1019.9
2019-05-03T04:40:15.860Z,1019.84
2019-05-03T04:41:15.952Z,1020
2019-05-03T04:42:16.426Z,1020.16
2019-05-03T04:43:16.428Z,1020.38
2019-05-03T04:44:15.569Z,1020.5
2019-05-03T04:45:16.455Z,1020.51
2019-05-03T04:46:16.340Z,1020.32
2019-05-03T04:47:15.787Z,1020.07
2019-05-03T04:48:15.964Z,1020.1
2019-05-03T04:49:15.246Z,1019.93
2019-05-03T04:50:16.237Z,1019.87
2019-05-03T04:51:16.621Z,1019.74
2019-05-03T04:52:16.429Z,1019.6
2019-05-03T04:53:16.109Z,1019.61
2019-05-03T04:54:16.325Z,1019.42
2019-05-03T04:55:16.061Z,1019.17
2019-05-03T04:56:16.844Z,1019.08
2019-05-03T04:57:15.987Z,1019.02
2019-05-03T04:58:16.073Z,1019.08
2019-05-03T04:59:15.847Z,1019.21
2019-05-03T05:00:15.940Z,1019.29
2019-05-03T05:01:15.875Z,1019.41
2019-05-03T05:02:15.874Z,1019.41
2019-05-03T05:03:15.283Z,1019.21
2019-05-03T05:04:16.047Z,1018.88
2019-05-03T05:05:15.478Z,1018.65
2019-05-03T05:06:15.522Z,1018.51
2019-05-03T05:07:15.614Z,1018.36
2019-05-03T05:08:16.198Z,1018.25
2019-05-03T05:09:15.640Z,1018.13
2019-05-03T05:10:15.528Z,1018.14
2019-05-03T05:11:15.706Z,1018.03
2019-05-03T05:12:16.093Z,1017.76
2019-05-03T05:13:15.674Z,1017.74
2019-05-03T05:14:15.371Z,1018.03
2019-05-03T05:15:15.723Z,1018.22
2019-05-03T05:16:15.985Z,1018.4
2019-05-03T05:17:16.244Z,1018.18
2019-05-03T05:18:15.931Z,1017.82
2019-05-03T05:19:15.267Z,1017.57
2019-05-03T05:20:15.049Z,1017.35
2019-05-03T05:21:15.089Z,1016.93
2019-05-03T05:22:15.489Z,1017.03
2019-05-03T05:23:15.041Z,1017.39
2019-05-03T05:24:15.188Z,1017.74
2019-05-03T05:25:15.032Z,1017.47
2019-05-03T05:26:15.028Z,1017.19
2019-05-03T05:27:15.024Z,1016.89
2019-05-03T05:28:15.180Z,1017.05
2019-05-03T05:29:15.019Z,1016.81
2019-05-03T05:30:15.059Z,1016.49
2019-05-03T05:31:15.199Z,1016.27
2019-05-03T05:32:15.009Z,1016.05
2019-05-03T05:33:15.005Z,1015.85
2019-05-03T05:34:15.391Z,1015.69
2019-05-03T05:35:15.002Z,1015.56
2019-05-03T05:36:15.360Z,1015.54
2019-05-03T05:37:15.006Z,1015.42
2019-05-03T05:38:15.072Z,1015.33
2019-05-03T05:39:15.297Z,1015.21
2019-05-03T05:40:15.605Z,1015
2019-05-03T05:41:15.595Z,1015.53
2019-05-03T05:42:15.033Z,1015.95
2019-05-03T05:43:15.253Z,1016.24
2019-05-03T05:44:14.997Z,1016.6
2019-05-03T05:45:15.371Z,1017.09
2019-05-03T05:46:14.996Z,1017.39
2019-05-03T05:47:15.071Z,1017.67
2019-05-03T05:48:15.388Z,1018
2019-05-03T05:49:14.995Z,1018.25
2019-05-03T05:50:14.994Z,1017.93
2019-05-03T05:51:16.102Z,1017.64
2019-05-03T05:52:15.507Z,1017.96
2019-05-03T05:53:15.278Z,1017.87
2019-05-03T05:54:14.991Z,1017.62
2019-05-03T05:55:15.001Z,1017.59
2019-05-03T05:56:15.749Z,1017.5
2019-05-03T05:57:15.026Z,1017.55
2019-05-03T05:58:15.666Z,1017.21
2019-05-03T05:59:15.018Z,1016.69
2019-05-03T06:00:15.344Z,1016.35
2019-05-03T06:01:14.981Z,1016.11
2019-05-03T06:02:15.113Z,1015.93
2019-05-03T06:03:15.035Z,1015.69
2019-05-03T06:04:15.362Z,1015.99
2019-05-03T06:05:14.979Z,1015.88
2019-05-03T06:06:15.321Z,1015.64
2019-05-03T06:07:14.980Z,1015.51
2019-05-03T06:08:15.136Z,1015.33
2019-05-03T06:09:15.300Z,1015.4
2019-05-03T06:10:16.650Z,1015.26
2019-05-03T06:11:14.981Z,1015.12
2019-05-03T06:12:15.094Z,1014.92
2019-05-03T06:13:15.249Z,1014.82
2019-05-03T06:14:15.323Z,1014.72
2019-05-03T06:15:15.091Z,1014.92
2019-05-03T06:16:15.471Z,1014.9
2019-05-03T06:17:14.989Z,1014.81
2019-05-03T06:18:14.993Z,1014.87
2019-05-03T06:19:14.994Z,1014.3
2019-05-03T06:20:15.589Z,1015.78
2019-05-03T06:21:15.001Z,1015.63
2019-05-03T06:22:15.344Z,1015.27
2019-05-03T06:23:15.006Z,1014.04
2019-05-03T06:24:15.009Z,1014.89
2019-05-03T06:25:16.557Z,1016.2
2019-05-03T06:26:15.627Z,1015.56
2019-05-03T06:27:15.314Z,1015.17
2019-05-03T06:28:20.062Z,1014.87
2019-05-03T06:29:15.110Z,1014.87
2019-05-03T06:30:15.048Z,1015.71
2019-05-03T06:31:15.033Z,1015.15
2019-05-03T06:32:15.345Z,1014.16
2019-05-03T06:33:15.041Z,1014.91
2019-05-03T06:34:15.122Z,1015.8
2019-05-03T06:35:15.169Z,1015.26
2019-05-03T06:36:15.308Z,1014.99
2019-05-03T06:37:15.054Z,1014.6
2019-05-03T06:38:15.273Z,1014.75
2019-05-03T06:39:15.415Z,1014.74
2019-05-03T06:40:15.135Z,1014.82
2019-05-03T06:41:15.181Z,1014.63
2019-05-03T06:42:19.078Z,1014.34
2019-05-03T06:43:15.718Z,1014.13
2019-05-03T06:44:19.128Z,1014
2019-05-03T06:45:15.186Z,1013.3
2019-05-03T06:46:17.778Z,1013.97
2019-05-03T06:47:15.108Z,1013.68
2019-05-03T06:48:17.208Z,1013.68
2019-05-03T06:49:15.376Z,1014.36
2019-05-03T06:50:19.371Z,1016.15
2019-05-03T06:51:19.855Z,1015.54
2019-05-03T06:52:19.610Z,1014.11
2019-05-03T06:53:15.573Z,1014.18
2019-05-03T06:54:15.824Z,1014.3
2019-05-03T06:55:15.149Z,1014.92
2019-05-03T06:56:19.207Z,1015.49
2019-05-03T06:57:15.162Z,1016.33
2019-05-03T06:58:16.525Z,1015.5
2019-05-03T06:59:15.171Z,1015.63
2019-05-03T07:00:15.477Z,1015.14
2019-05-03T07:01:15.182Z,1015.53
2019-05-03T07:02:15.195Z,1016.37
2019-05-03T07:03:15.238Z,1016.33
2019-05-03T07:04:15.335Z,1016.26
2019-05-03T07:05:15.336Z,1016.64
2019-05-03T07:06:15.203Z,1016.53
2019-05-03T07:07:15.555Z,1016.52
2019-05-03T07:08:15.300Z,1017
2019-05-03T07:09:15.215Z,1016.44
2019-05-03T07:10:15.217Z,1015.8
2019-05-03T07:11:15.493Z,1014.83
2019-05-03T07:12:15.226Z,1015.31
2019-05-03T07:13:15.333Z,1014.66
2019-05-03T07:14:15.600Z,1013.76
2019-05-03T07:15:15.238Z,1014.78
2019-05-03T07:16:15.240Z,1016.31
2019-05-03T07:17:15.243Z,1015.56
2019-05-03T07:18:15.791Z,1014.42
2019-05-03T07:19:15.252Z,1014.97
2019-05-03T07:20:15.256Z,1015.14
2019-05-03T07:21:15.368Z,1015.88
2019-05-03T07:22:15.357Z,1016.4
2019-05-03T07:23:15.672Z,1017.18
2019-05-03T07:24:15.271Z,1017.09
2019-05-03T07:25:15.278Z,1017.45
2019-05-03T07:26:15.277Z,1017.87
2019-05-03T07:27:15.819Z,1018.98
2019-05-03T07:28:15.283Z,1017.53
2019-05-03T07:29:15.363Z,1016.73
2019-05-03T07:30:15.668Z,1016.42
2019-05-03T07:31:15.317Z,1017.01
2019-05-03T07:32:15.638Z,1017.42
2019-05-03T07:33:15.294Z,1017.82
2019-05-03T07:34:15.661Z,1017.77
2019-05-03T07:35:15.296Z,1016.89
2019-05-03T07:36:15.499Z,1017.8
2019-05-03T07:37:15.299Z,1017.12
2019-05-03T07:38:15.553Z,1017.61
2019-05-03T07:39:15.301Z,1017.68
2019-05-03T07:40:15.302Z,1016.79
2019-05-03T07:41:15.304Z,1016.24
2019-05-03T07:42:15.700Z,1015.66
2019-05-03T07:43:15.308Z,1015.25
2019-05-03T07:44:15.332Z,1014.79
2019-05-03T07:45:15.312Z,1014.63
2019-05-03T07:46:15.314Z,1014.32
2019-05-03T07:47:15.318Z,1014.21
2019-05-03T07:48:15.322Z,1014.05
2019-05-03T07:49:15.488Z,1013.74
2019-05-03T07:50:15.396Z,1013.35
2019-05-03T07:51:15.338Z,1014.41
2019-05-03T07:52:15.341Z,1015.21
2019-05-03T07:53:15.346Z,1014.91
2019-05-03T07:54:15.740Z,1014.34
2019-05-03T07:55:15.356Z,1013.71
2019-05-03T07:56:15.708Z,1014.28
2019-05-03T07:57:18.003Z,1015.17
2019-05-03T07:58:15.373Z,1015.15
2019-05-03T07:59:15.378Z,1014.45
2019-05-03T08:00:15.383Z,1014.13
2019-05-03T08:01:15.388Z,1014
2019-05-03T08:02:15.419Z,1013.86
2019-05-03T08:03:15.607Z,1013.89
2019-05-03T08:04:15.531Z,1013.53
2019-05-03T08:05:15.571Z,1014.15
2019-05-03T08:06:15.428Z,1014.7
2019-05-03T08:07:22.171Z,1014.77
2019-05-03T08:08:15.430Z,1014.69
2019-05-03T08:09:15.436Z,1014.87
2019-05-03T08:10:15.444Z,1015.69
2019-05-03T08:11:15.447Z,1016.46
2019-05-03T08:12:15.453Z,1016.22
2019-05-03T08:13:15.458Z,1016.84
2019-05-03T08:14:18.018Z,1017.55
2019-05-03T08:15:15.760Z,1017.68
2019-05-03T08:16:16.034Z,1017.49
2019-05-03T08:17:15.483Z,1017.71
2019-05-03T08:18:15.593Z,1017.74
2019-05-03T08:19:15.483Z,1016.75
2019-05-03T08:20:15.485Z,1016.18
2019-05-03T08:21:15.493Z,1016.35
2019-05-03T08:22:15.491Z,1015.6
2019-05-03T08:23:26.079Z,1015.46
2019-05-03T08:24:15.499Z,1015.36
2019-05-03T08:25:15.502Z,1015.62
2019-05-03T08:26:15.505Z,1016.44
2019-05-03T08:27:15.509Z,1017.28
2019-05-03T08:28:15.512Z,1017.45
2019-05-03T08:29:18.431Z,1016.6
2019-05-03T08:30:15.517Z,1016.76
2019-05-03T08:31:15.520Z,1016.38
2019-05-03T08:32:15.523Z,1015.9
2019-05-03T08:33:15.526Z,1015.54
2019-05-03T08:34:15.530Z,1015.44
2019-05-03T08:35:15.584Z,1015.77
2019-05-03T08:36:15.756Z,1016.49
2019-05-03T08:37:15.536Z,1017.2
2019-05-03T08:38:15.548Z,1017.66
2019-05-03T08:39:15.865Z,1018.21
2019-05-03T08:40:15.689Z,1018.55
2019-05-03T08:41:15.544Z,1018.86
2019-05-03T08:42:15.546Z,1019.18
2019-05-03T08:43:15.767Z,1019.3
2019-05-03T08:44:15.550Z,1019.37
2019-05-03T08:45:15.548Z,1019.51
2019-05-03T08:46:15.546Z,1019.65
2019-05-03T08:47:15.638Z,1019.77
2019-05-03T08:48:15.548Z,1019.84
2019-05-03T08:49:15.546Z,1019.83
2019-05-03T08:50:21.139Z,1019.74
2019-05-03T08:51:15.544Z,1019.83
2019-05-03T08:52:15.809Z,1019.92
2019-05-03T08:53:15.810Z,1020.05
2019-05-03T08:54:15.539Z,1020.07
2019-05-03T08:55:15.945Z,1020.12
2019-05-03T08:56:15.802Z,1020.17
2019-05-03T08:57:15.534Z,1020.23
2019-05-03T08:58:15.617Z,1020.28
2019-05-03T08:59:26.673Z,1020.2
2019-05-03T09:00:15.527Z,1020.33
2019-05-03T09:01:15.527Z,1020.46
2019-05-03T09:02:17.512Z,1020.58
2019-05-03T09:03:15.517Z,1020.77
2019-05-03T09:04:15.580Z,1020.81
2019-05-03T09:05:25.375Z,1020.84
2019-05-03T09:06:25.364Z,1020.87
2019-05-03T09:07:25.535Z,1020.83
2019-05-03T09:08:25.358Z,1020.62
2019-05-03T09:09:25.539Z,1020.45
2019-05-03T09:10:25.350Z,1020.37
2019-05-03T09:11:33.523Z,1020.22
2019-05-03T09:12:25.378Z,1020.31
2019-05-03T09:13:25.366Z,1020.44
2019-05-03T09:14:38.181Z,1020.51
2019-05-03T09:15:25.332Z,1020.68
2019-05-03T09:16:25.330Z,1020.81
2019-05-03T09:17:25.328Z,1020.8
2019-05-03T09:18:25.885Z,1020.76
2019-05-03T09:19:25.492Z,1020.61
2019-05-03T09:20:25.315Z,1020.47
2019-05-03T09:21:25.653Z,1020.6
2019-05-03T09:22:25.586Z,1020.64
2019-05-03T09:23:25.947Z,1020.67
2019-05-03T09:24:25.304Z,1020.74
2019-05-03T09:25:25.295Z,1020.7
2019-05-03T09:26:29.041Z,1020.73
2019-05-03T09:27:25.388Z,1020.82
2019-05-03T09:28:27.460Z,1020.91
2019-05-03T09:29:25.542Z,1020.94
2019-05-03T09:30:25.280Z,1021.08
2019-05-03T09:31:25.274Z,1021.08
2019-05-03T09:32:25.695Z,1021.2
2019-05-03T09:33:25.268Z,1021.37
2019-05-03T09:34:25.739Z,1021.45
2019-05-03T09:35:30.253Z,1021.54
2019-05-03T09:36:25.535Z,1021.61
2019-05-03T09:37:25.249Z,1021.63
2019-05-03T09:38:25.679Z,1021.58
2019-05-03T09:39:25.241Z,1021.54
2019-05-03T09:40:25.236Z,1021.6
2019-05-03T09:41:25.703Z,1021.56
2019-05-03T09:42:25.225Z,1021.63
2019-05-03T09:43:25.239Z,1021.61
2019-05-03T09:44:25.218Z,1021.6
2019-05-03T09:45:25.213Z,1021.53
2019-05-03T09:46:26.378Z,1021.58
2019-05-03T09:47:25.401Z,1021.62
2019-05-03T09:48:25.624Z,1021.66
2019-05-03T09:49:25.429Z,1021.76
2019-05-03T09:50:25.189Z,1021.73
2019-05-03T09:51:25.509Z,1021.66
2019-05-03T09:52:25.286Z,1021.66
2019-05-03T09:53:25.648Z,1021.51
2019-05-03T09:54:25.572Z,1021.6
2019-05-03T09:55:25.382Z,1021.58
2019-05-03T09:56:25.895Z,1021.55
2019-05-03T09:57:25.155Z,1021.44
2019-05-03T09:58:26.315Z,1021.38
2019-05-03T09:59:25.520Z,1021.51
2019-05-03T10:00:25.140Z,1021.48
2019-05-03T10:01:25.542Z,1021.5
2019-05-03T10:02:25.130Z,1021.44
2019-05-03T10:03:25.125Z,1021.53
2019-05-03T10:04:25.531Z,1021.6
2019-05-03T10:05:25.673Z,1021.59
2019-05-03T10:06:25.165Z,1021.57
2019-05-03T10:07:25.734Z,1021.64
2019-05-03T10:08:25.516Z,1021.62
2019-05-03T10:09:26.040Z,1021.62
2019-05-03T10:10:25.089Z,1021.61
2019-05-03T10:11:25.414Z,1021.7
2019-05-03T10:12:25.567Z,1021.65
2019-05-03T10:13:27.004Z,1021.58
2019-05-03T10:14:25.067Z,1021.58
2019-05-03T10:15:25.957Z,1021.5
2019-05-03T10:16:25.057Z,1021.45
2019-05-03T10:17:25.275Z,1021.27
2019-05-03T10:18:25.397Z,1021.18
2019-05-03T10:19:36.490Z,1021.15
2019-05-03T10:20:25.277Z,1020.99
2019-05-03T10:21:25.730Z,1020.89
2019-05-03T10:22:25.269Z,1020.94
2019-05-03T10:23:25.020Z,1021.03
2019-05-03T10:24:25.016Z,1021.07
2019-05-03T10:25:25.010Z,1021.11
2019-05-03T10:26:25.006Z,1021.05
2019-05-03T10:27:25.191Z,1021.06
2019-05-03T10:28:25.198Z,1021.07
2019-05-03T10:29:25.178Z,1021.05
2019-05-03T10:30:24.992Z,1021.07
2019-05-03T10:31:25.247Z,1020.99
2019-05-03T10:32:25.402Z,1020.92
2019-05-03T10:33:25.964Z,1020.84
2019-05-03T10:34:24.968Z,1020.84
2019-05-03T10:35:24.963Z,1020.93
2019-05-03T10:36:25.132Z,1020.86
2019-05-03T10:37:24.953Z,1020.81
2019-05-03T10:38:24.948Z,1020.79
2019-05-03T10:39:26.221Z,1020.76
2019-05-03T10:40:24.940Z,1020.76
2019-05-03T10:41:25.195Z,1020.93
2019-05-03T10:42:24.933Z,1020.96
2019-05-03T10:43:24.949Z,1020.78
2019-05-03T10:44:24.921Z,1020.63
2019-05-03T10:45:27.469Z,1020.58
2019-05-03T10:46:25.097Z,1020.45
2019-05-03T10:47:25.415Z,1020.33
2019-05-03T10:48:25.160Z,1020.3
2019-05-03T10:49:24.899Z,1020.29
2019-05-03T10:50:25.303Z,1020.38
2019-05-03T10:51:24.890Z,1020.41
2019-05-03T10:52:25.741Z,1020.43
2019-05-03T10:53:24.881Z,1020.37
2019-05-03T10:54:24.877Z,1020.4
2019-05-03T10:55:25.085Z,1020.37
2019-05-03T10:56:26.798Z,1020.33
2019-05-03T10:57:24.934Z,1020.38
2019-05-03T10:58:25.050Z,1020.41
2019-05-03T10:59:25.000Z,1020.33
2019-05-03T11:00:42.276Z,1020.32
2019-05-03T11:01:25.004Z,1020.2
2019-05-03T11:02:25.378Z,1020.39
2019-05-03T11:03:24.840Z,1020.36
2019-05-03T11:04:24.835Z,1020.4
2019-05-03T11:05:24.832Z,1020.44
2019-05-03T11:06:25.458Z,1020.35
2019-05-03T11:07:25.613Z,1020.43
2019-05-03T11:08:24.819Z,1020.19
2019-05-03T11:09:25.764Z,1020.05
2019-05-03T11:10:25.254Z,1019.96
2019-05-03T11:11:25.866Z,1019.93
2019-05-03T11:12:25.421Z,1019.85
2019-05-03T11:13:26.407Z,1019.72
2019-05-03T11:14:25.351Z,1020.02
2019-05-03T11:15:25.820Z,1019.98
2019-05-03T11:16:25.477Z,1020.04
2019-05-03T11:17:25.604Z,1020.13
2019-05-03T11:18:25.253Z,1020.01
2019-05-03T11:19:25.338Z,1020.11
2019-05-03T11:20:28.988Z,1020.12
2019-05-03T11:21:28.749Z,1020.21
2019-05-03T11:22:25.301Z,1020.27
2019-05-03T11:23:25.130Z,1020.25
2019-05-03T11:24:27.128Z,1020.24
2019-05-03T11:25:24.952Z,1020.42
2019-05-03T11:26:25.235Z,1020.51
2019-05-03T11:27:24.877Z,1020.53
2019-05-03T11:28:24.987Z,1020.52
2019-05-03T11:29:24.859Z,1020.48
2019-05-03T11:30:24.749Z,1020.3
2019-05-03T11:31:24.870Z,1020.11
2019-05-03T11:32:25.433Z,1020.14
2019-05-03T11:33:24.806Z,1020.04
2019-05-03T11:34:25.325Z,1020.03
2019-05-03T11:35:24.767Z,1019.94
2019-05-03T11:36:25.290Z,1019.94
2019-05-03T11:37:25.133Z,1019.88
2019-05-03T11:38:25.345Z,1019.9
2019-05-03T11:40:25.122Z,1019.78
2019-05-03T11:42:24.685Z,1019.78
2019-05-03T11:43:24.909Z,1019.85
2019-05-03T11:44:24.679Z,1019.86
2019-05-03T11:45:24.700Z,1019.93
2019-05-03T11:46:24.867Z,1019.9
2019-05-03T11:47:25.571Z,1020.01
2019-05-03T11:48:25.223Z,1020.08
2019-05-03T11:49:25.421Z,1020.04
2019-05-03T11:50:25.298Z,1020.02
2019-05-03T11:51:24.924Z,1019.98
2019-05-03T11:52:25.784Z,1020.01
2019-05-03T11:53:25.143Z,1019.91
2019-05-03T11:54:25.089Z,1019.87
2019-05-03T11:55:26.755Z,1019.83
2019-05-03T11:56:24.962Z,1019.74
2019-05-03T11:57:26.156Z,1019.68
2019-05-03T11:58:26.950Z,1019.79
2019-05-03T11:59:25.378Z,1019.79
2019-05-03T12:00:25.279Z,1019.77
2019-05-03T12:01:25.578Z,1019.73
2019-05-03T12:02:24.825Z,1019.82
2019-05-03T12:03:25.060Z,1019.84
2019-05-03T12:04:25.043Z,1019.83
2019-05-03T12:05:24.640Z,1019.9
2019-05-03T12:06:24.956Z,1019.88
2019-05-03T12:07:36.361Z,1020.01
2019-05-03T12:08:25.247Z,1020.03
2019-05-03T12:09:24.583Z,1020.01
2019-05-03T12:10:35.737Z,1019.99